WetterOnline ( https://www.wetteronline.de )

Wetter aktuell Kleiner Arber

Aktuelles Wetter: Zwiesel (613m)

6-stündlich | Neueste Meldungen
Ortszeit Temperatur Wetter
Di, 11.05. 14:00 25.4° C wolkenlos
So, 09.05. 8:00 5.3° C wolkenlos
So, 09.05. 2:00 2.3° C wolkenlos
Sa, 08.05. 20:00 10.7° C wolkig
Sa, 08.05. 14:00 11.7° C leicht bewölkt
Sa, 08.05. 8:00 2.6° C wolkenlos
Sa, 08.05. 2:00 -1.1° C wolkenlos
Fr, 07.05. 20:00 5.1° C fast wolkenlos
Ortszeit Temperatur Wetter
Di, 11.05. 19:00 23.5° C wolkig
Di, 11.05. 18:50 23.5° C wolkig
Di, 11.05. 18:40 23.7° C bedeckt
Di, 11.05. 18:30 23.8° C bedeckt
Di, 11.05. 18:20 23.8° C bedeckt
Di, 11.05. 18:10 24.0° C bedeckt
Di, 11.05. 18:00 24.4° C bedeckt
Di, 11.05. 17:30 24.9° C wolkig
Di, 11.05. 17:00 25.3° C bewölkt
Di, 11.05. 16:30 25.1° C wolkig
Di, 11.05. 16:00 24.6° C leicht bewölkt
Ortszeit Relative Feuchte Sichtweite
Di, 11.05. 14:00 28% 60 km
So, 09.05. 8:00 78% 45 km
So, 09.05. 2:00 87% 60 km
Sa, 08.05. 20:00 54% 55 km
Sa, 08.05. 14:00 36% 55 km
Sa, 08.05. 8:00 74% 50 km
Sa, 08.05. 2:00 92% 50 km
Fr, 07.05. 20:00 71% 60 km
Ortszeit Relative Feuchte Sichtweite
Di, 11.05. 19:00 34% 65 km
Di, 11.05. 18:50 34% -
Di, 11.05. 18:40 32% -
Di, 11.05. 18:30 32% 65 km
Di, 11.05. 18:20 32% -
Di, 11.05. 18:10 31% -
Di, 11.05. 18:00 30% >70 km
Di, 11.05. 17:30 31% 50 km
Di, 11.05. 17:00 30% 55 km
Di, 11.05. 16:30 30% 65 km
Di, 11.05. 16:00 32% 60 km
Ortszeit Niederschlagsmenge Niederschlagsart
Di, 11.05. 14:00 0.0 l/m2 in 3 Std. -
So, 09.05. 8:00 0.0 l/m2 in 12 Std. -
So, 09.05. 2:00 0.0 l/m2 in 6 Std. -
Sa, 08.05. 20:00 0.0 l/m2 in 12 Std. -
Sa, 08.05. 14:00 0.0 l/m2 in 6 Std. -
Sa, 08.05. 8:00 0.1 l/m2 in 12 Std. -
Sa, 08.05. 2:00 0.1 l/m2 in 6 Std. Regen
Fr, 07.05. 20:00 2 l/m2 in 12 Std. Regen
Ortszeit Niederschlagsmenge Niederschlagsart
Di, 11.05. 19:00 0.0 l/m2 in 1 Std. -
Di, 11.05. 18:50 keine Meldung -
Di, 11.05. 18:40 keine Meldung -
Di, 11.05. 18:30 0.0 l/m2 in 1 Std. -
Di, 11.05. 18:20 keine Meldung -
Di, 11.05. 18:10 keine Meldung -
Di, 11.05. 18:00 0.0 l/m2 in 1 Std. -
Di, 11.05. 17:30 0.0 l/m2 in 1 Std. -
Di, 11.05. 17:00 0.0 l/m2 in 1 Std. -
Di, 11.05. 16:30 0.0 l/m2 in 1 Std. -
Di, 11.05. 16:00 0.0 l/m2 in 1 Std. -
Ortszeit Stärke Spitze Richtung
km/h Bft. km/h Grad Sektor
Di, 11.05. 14:00 14 3 25 190° S
So, 09.05. 8:00 2 1 9 300° NW
So, 09.05. 2:00 0 0 7 - -
Sa, 08.05. 20:00 4 1 36 140° SO
Sa, 08.05. 14:00 7 2 25 210° SW
Sa, 08.05. 8:00 0 0 7 - -
Sa, 08.05. 2:00 2 1 19 10° N
Fr, 07.05. 20:00 7 2 46 280° W
Ortszeit Stärke Spitze Richtung
km/h Bft. km/h Grad Sektor
Di, 11.05. 19:00 17 3 30 150° SO
Di, 11.05. 18:50 17 3 - 150° SO
Di, 11.05. 18:40 17 3 - 150° SO
Di, 11.05. 18:30 14 3 29 140° SO
Di, 11.05. 18:20 14 3 - 140° SO
Di, 11.05. 18:10 17 3 - 150° SO
Di, 11.05. 18:00 17 3 31 130° SO
Di, 11.05. 17:30 7 2 18 210° SW
Di, 11.05. 17:00 7 2 29 180° S
Di, 11.05. 16:30 11 2 25 200° S
Di, 11.05. 16:00 13 3 26 170° S
Ortszeit Untergrenze Bedeckung Gattung
total tief tief mittel hoch
Di, 11.05. 14:00 3900 m 0/8 0/8 - - -
So, 09.05. 8:00 10500 m 0/8 0/8 - - -
So, 09.05. 2:00 - 0/8 0/8 - - -
Sa, 08.05. 20:00 3300 m 5/8 5/8 - - -
Sa, 08.05. 14:00 6900 m 3/8 3/8 - - -
Sa, 08.05. 8:00 - 0/8 0/8 - - -
Sa, 08.05. 2:00 - 0/8 0/8 - - -
Fr, 07.05. 20:00 1440 m 1/8 1/8 - - -
Ortszeit Bedeckungsgrad in Achtel und Wolkenuntergrenze
Di, 11.05. 19:00 4(3000m) 6(6300m)
Di, 11.05. 18:50 4(3000m) 6(6300m)
Di, 11.05. 18:40 8(3000m)
Di, 11.05. 18:30 8(3000m)
Di, 11.05. 18:20 8(3000m)
Di, 11.05. 18:10 7(3000m) 8(4500m)
Di, 11.05. 18:00 6(3000m) 8(4500m)
Di, 11.05. 17:30 4(2700m) 7(6000m) 7(6600m)
Di, 11.05. 17:00 3(3600m) 7(5700m) 7(6300m)
Di, 11.05. 16:30 6(3300m) 6(5700m)
Di, 11.05. 16:00 2(3300m) 3(4500m)
Ortszeit Luftdruck NN (hPa) Tendenz (hPa in 3 Std.)
Di, 11.05. 14:00 1002 keine Meldung
So, 09.05. 8:00 1018 + 0,1
So, 09.05. 2:00 1019 - 0,3
Sa, 08.05. 20:00 1017 - 0,7
Sa, 08.05. 14:00 1019 - 1,2
Sa, 08.05. 8:00 1024 + 0,4
Sa, 08.05. 2:00 1024 + 1,2
Fr, 07.05. 20:00 1018 + 3,2
Ortszeit Luftdruck NN (hPa) Tendenz (hPa in 3 Std.)
Di, 11.05. 19:00 1000 - 0,7
Di, 11.05. 18:50 1000 keine Meldung
Di, 11.05. 18:40 1000 keine Meldung
Di, 11.05. 18:30 1000 - 0,8
Di, 11.05. 18:20 1000 keine Meldung
Di, 11.05. 18:10 1001 keine Meldung
Di, 11.05. 18:00 1000 - 0,7
Di, 11.05. 17:30 1000 - 1,2
Di, 11.05. 17:00 1001 - 1,2
Di, 11.05. 16:30 1001 - 1,3
Di, 11.05. 16:00 1001 - 1,2
Ortszeit Schneehöhe (cm)
Di, 11.05. 14:00 0
So, 09.05. 8:00 0
So, 09.05. 2:00 0
Sa, 08.05. 20:00 0
Sa, 08.05. 14:00 0
Sa, 08.05. 8:00 0
Sa, 08.05. 2:00 0
Fr, 07.05. 20:00 0
Ortszeit Schneehöhe (cm)
Di, 11.05. 19:00 0
Di, 11.05. 18:50 0
Di, 11.05. 18:40 0
Di, 11.05. 18:30 0
Di, 11.05. 18:20 0
Di, 11.05. 18:10 0
Di, 11.05. 18:00 0
Di, 11.05. 17:30 0
Di, 11.05. 17:00 0
Di, 11.05. 16:30 0
Di, 11.05. 16:00 0
Link zu dieser Seite / Seite empfehlen

Das Wetter in ...